sensor_id;sensor_type;location;lat;lon;timestamp;temperature;humidity
16863;DHT22;52193;48.216;-1.698;2023-09-19T00:01:33;20.00;96.70
16863;DHT22;52193;48.216;-1.698;2023-09-19T00:04:02;20.00;96.70
16863;DHT22;52193;48.216;-1.698;2023-09-19T00:06:29;19.90;96.70
16863;DHT22;52193;48.216;-1.698;2023-09-19T00:08:57;19.90;96.70
16863;DHT22;52193;48.216;-1.698;2023-09-19T00:11:26;19.90;96.80
16863;DHT22;52193;48.216;-1.698;2023-09-19T00:13:54;19.90;96.80
16863;DHT22;52193;48.216;-1.698;2023-09-19T00:16:25;19.90;96.80
16863;DHT22;52193;48.216;-1.698;2023-09-19T00:18:52;19.90;96.80
16863;DHT22;52193;48.216;-1.698;2023-09-19T00:21:22;19.90;96.80
16863;DHT22;52193;48.216;-1.698;2023-09-19T00:23:49;19.90;96.80
16863;DHT22;52193;48.216;-1.698;2023-09-19T00:26:17;19.90;96.80
16863;DHT22;52193;48.216;-1.698;2023-09-19T00:28:44;19.90;96.90
16863;DHT22;52193;48.216;-1.698;2023-09-19T00:31:11;19.90;96.90
16863;DHT22;52193;48.216;-1.698;2023-09-19T00:33:38;19.90;96.90
16863;DHT22;52193;48.216;-1.698;2023-09-19T00:36:05;19.90;96.90
16863;DHT22;52193;48.216;-1.698;2023-09-19T00:38:33;19.80;96.90
16863;DHT22;52193;48.216;-1.698;2023-09-19T00:41:00;19.80;96.90
16863;DHT22;52193;48.216;-1.698;2023-09-19T00:43:28;19.80;96.80
16863;DHT22;52193;48.216;-1.698;2023-09-19T00:46:00;19.70;96.80
16863;DHT22;52193;48.216;-1.698;2023-09-19T00:48:28;19.70;96.90
16863;DHT22;52193;48.216;-1.698;2023-09-19T00:50:58;19.70;97.00
16863;DHT22;52193;48.216;-1.698;2023-09-19T00:53:26;19.60;97.00
16863;DHT22;52193;48.216;-1.698;2023-09-19T00:55:54;19.60;97.10
16863;DHT22;52193;48.216;-1.698;2023-09-19T00:58:22;19.60;97.10
16863;DHT22;52193;48.216;-1.698;2023-09-19T01:00:50;19.50;97.10
16863;DHT22;52193;48.216;-1.698;2023-09-19T01:03:19;19.50;97.10
16863;DHT22;52193;48.216;-1.698;2023-09-19T01:05:46;19.50;97.10
16863;DHT22;52193;48.216;-1.698;2023-09-19T01:08:12;19.50;97.10
16863;DHT22;52193;48.216;-1.698;2023-09-19T01:10:46;19.50;97.20
16863;DHT22;52193;48.216;-1.698;2023-09-19T01:13:27;19.40;97.20
16863;DHT22;52193;48.216;-1.698;2023-09-19T01:16:02;19.40;97.20
16863;DHT22;52193;48.216;-1.698;2023-09-19T01:18:46;19.30;97.20
16863;DHT22;52193;48.216;-1.698;2023-09-19T01:21:22;19.30;97.40
16863;DHT22;52193;48.216;-1.698;2023-09-19T01:24:16;19.30;97.40
16863;DHT22;52193;48.216;-1.698;2023-09-19T01:27:06;19.30;97.40
16863;DHT22;52193;48.216;-1.698;2023-09-19T01:29:44;19.20;97.40
16863;DHT22;52193;48.216;-1.698;2023-09-19T01:32:16;19.20;97.40
16863;DHT22;52193;48.216;-1.698;2023-09-19T01:34:47;19.20;97.50
16863;DHT22;52193;48.216;-1.698;2023-09-19T01:37:16;19.10;97.50
16863;DHT22;52193;48.216;-1.698;2023-09-19T01:39:46;19.10;97.60
16863;DHT22;52193;48.216;-1.698;2023-09-19T01:42:23;19.10;97.60
16863;DHT22;52193;48.216;-1.698;2023-09-19T01:44:57;19.10;97.70
16863;DHT22;52193;48.216;-1.698;2023-09-19T01:47:32;19.10;97.60
16863;DHT22;52193;48.216;-1.698;2023-09-19T01:50:07;19.00;97.60
16863;DHT22;52193;48.216;-1.698;2023-09-19T01:52:42;19.00;97.70
16863;DHT22;52193;48.216;-1.698;2023-09-19T01:55:14;18.90;97.70
16863;DHT22;52193;48.216;-1.698;2023-09-19T01:57:49;18.90;98.00
16863;DHT22;52193;48.216;-1.698;2023-09-19T02:00:20;18.90;97.80
16863;DHT22;52193;48.216;-1.698;2023-09-19T02:02:51;18.80;97.90
16863;DHT22;52193;48.216;-1.698;2023-09-19T02:05:22;18.80;97.90
16863;DHT22;52193;48.216;-1.698;2023-09-19T02:07:51;18.80;98.30
16863;DHT22;52193;48.216;-1.698;2023-09-19T02:10:18;18.90;98.00
16863;DHT22;52193;48.216;-1.698;2023-09-19T02:12:45;18.90;97.90
16863;DHT22;52193;48.216;-1.698;2023-09-19T02:15:12;18.80;97.90
16863;DHT22;52193;48.216;-1.698;2023-09-19T02:17:41;18.80;97.90
16863;DHT22;52193;48.216;-1.698;2023-09-19T02:20:11;18.80;97.90
16863;DHT22;52193;48.216;-1.698;2023-09-19T02:22:41;18.80;97.90
16863;DHT22;52193;48.216;-1.698;2023-09-19T02:25:08;18.80;98.00
16863;DHT22;52193;48.216;-1.698;2023-09-19T02:27:35;18.70;98.00
16863;DHT22;52193;48.216;-1.698;2023-09-19T02:30:03;18.70;98.00
16863;DHT22;52193;48.216;-1.698;2023-09-19T02:32:31;18.70;98.00
16863;DHT22;52193;48.216;-1.698;2023-09-19T02:35:01;18.70;98.00
16863;DHT22;52193;48.216;-1.698;2023-09-19T02:37:31;18.70;98.00
16863;DHT22;52193;48.216;-1.698;2023-09-19T02:39:58;18.70;98.00
16863;DHT22;52193;48.216;-1.698;2023-09-19T02:42:25;18.70;98.00
16863;DHT22;52193;48.216;-1.698;2023-09-19T02:44:52;18.70;98.10
16863;DHT22;52193;48.216;-1.698;2023-09-19T02:47:20;18.70;98.10
16863;DHT22;52193;48.216;-1.698;2023-09-19T02:49:47;18.70;98.20
16863;DHT22;52193;48.216;-1.698;2023-09-19T02:52:14;18.70;98.10
16863;DHT22;52193;48.216;-1.698;2023-09-19T02:54:42;18.70;98.20
16863;DHT22;52193;48.216;-1.698;2023-09-19T02:57:10;18.70;98.20
16863;DHT22;52193;48.216;-1.698;2023-09-19T02:59:39;18.70;98.20
16863;DHT22;52193;48.216;-1.698;2023-09-19T03:02:07;18.60;98.20
16863;DHT22;52193;48.216;-1.698;2023-09-19T03:04:35;18.70;98.20
16863;DHT22;52193;48.216;-1.698;2023-09-19T03:07:03;18.70;98.10
16863;DHT22;52193;48.216;-1.698;2023-09-19T03:09:30;18.70;98.10
16863;DHT22;52193;48.216;-1.698;2023-09-19T03:11:58;18.70;98.10
16863;DHT22;52193;48.216;-1.698;2023-09-19T03:14:26;18.70;98.10
16863;DHT22;52193;48.216;-1.698;2023-09-19T03:16:55;18.70;98.10
16863;DHT22;52193;48.216;-1.698;2023-09-19T03:19:22;18.70;98.00
16863;DHT22;52193;48.216;-1.698;2023-09-19T03:21:49;18.70;98.00
16863;DHT22;52193;48.216;-1.698;2023-09-19T03:24:16;18.70;98.10
16863;DHT22;52193;48.216;-1.698;2023-09-19T03:26:44;18.70;98.20
16863;DHT22;52193;48.216;-1.698;2023-09-19T03:29:12;18.80;98.20
16863;DHT22;52193;48.216;-1.698;2023-09-19T03:31:39;18.80;98.20
16863;DHT22;52193;48.216;-1.698;2023-09-19T03:34:06;18.80;98.10
16863;DHT22;52193;48.216;-1.698;2023-09-19T03:36:35;18.80;98.10
16863;DHT22;52193;48.216;-1.698;2023-09-19T03:39:02;18.80;98.10
16863;DHT22;52193;48.216;-1.698;2023-09-19T03:41:30;18.90;98.10
16863;DHT22;52193;48.216;-1.698;2023-09-19T03:43:58;18.90;98.10
16863;DHT22;52193;48.216;-1.698;2023-09-19T03:46:27;18.80;98.10
16863;DHT22;52193;48.216;-1.698;2023-09-19T03:48:54;18.80;98.00
16863;DHT22;52193;48.216;-1.698;2023-09-19T03:51:21;18.80;98.10
16863;DHT22;52193;48.216;-1.698;2023-09-19T03:53:48;18.80;98.10
16863;DHT22;52193;48.216;-1.698;2023-09-19T03:56:15;18.80;98.10
16863;DHT22;52193;48.216;-1.698;2023-09-19T03:58:43;18.90;98.10
16863;DHT22;52193;48.216;-1.698;2023-09-19T04:01:10;18.80;98.00
16863;DHT22;52193;48.216;-1.698;2023-09-19T04:03:40;18.80;98.00
16863;DHT22;52193;48.216;-1.698;2023-09-19T04:06:13;18.80;98.00
16863;DHT22;52193;48.216;-1.698;2023-09-19T04:08:40;18.80;98.00
16863;DHT22;52193;48.216;-1.698;2023-09-19T04:11:07;18.70;98.00
16863;DHT22;52193;48.216;-1.698;2023-09-19T04:13:34;18.70;98.10
16863;DHT22;52193;48.216;-1.698;2023-09-19T04:16:01;18.70;98.00
16863;DHT22;52193;48.216;-1.698;2023-09-19T04:18:29;18.70;98.10
16863;DHT22;52193;48.216;-1.698;2023-09-19T04:21:00;18.60;98.10
16863;DHT22;52193;48.216;-1.698;2023-09-19T04:23:29;18.60;98.20
16863;DHT22;52193;48.216;-1.698;2023-09-19T04:25:56;18.60;98.20
16863;DHT22;52193;48.216;-1.698;2023-09-19T04:28:24;18.60;98.20
16863;DHT22;52193;48.216;-1.698;2023-09-19T04:30:53;18.60;98.20
16863;DHT22;52193;48.216;-1.698;2023-09-19T04:33:20;18.60;98.30
16863;DHT22;52193;48.216;-1.698;2023-09-19T04:35:49;18.60;98.30
16863;DHT22;52193;48.216;-1.698;2023-09-19T04:38:17;18.60;98.40
16863;DHT22;52193;48.216;-1.698;2023-09-19T04:40:44;18.60;98.40
16863;DHT22;52193;48.216;-1.698;2023-09-19T04:43:11;18.60;98.40
16863;DHT22;52193;48.216;-1.698;2023-09-19T04:45:39;18.60;98.40
16863;DHT22;52193;48.216;-1.698;2023-09-19T04:48:06;18.60;98.30
16863;DHT22;52193;48.216;-1.698;2023-09-19T04:50:34;18.60;98.30
16863;DHT22;52193;48.216;-1.698;2023-09-19T04:53:02;18.60;98.30
16863;DHT22;52193;48.216;-1.698;2023-09-19T04:55:31;18.60;98.40
16863;DHT22;52193;48.216;-1.698;2023-09-19T04:57:58;18.60;98.40
16863;DHT22;52193;48.216;-1.698;2023-09-19T05:00:25;18.50;98.40
16863;DHT22;52193;48.216;-1.698;2023-09-19T05:02:56;18.50;98.40
16863;DHT22;52193;48.216;-1.698;2023-09-19T05:05:23;18.50;98.50
16863;DHT22;52193;48.216;-1.698;2023-09-19T05:07:52;18.50;98.50
16863;DHT22;52193;48.216;-1.698;2023-09-19T05:10:20;18.50;98.50
16863;DHT22;52193;48.216;-1.698;2023-09-19T05:12:48;18.50;98.60
16863;DHT22;52193;48.216;-1.698;2023-09-19T05:15:17;18.50;98.60
16863;DHT22;52193;48.216;-1.698;2023-09-19T05:17:48;18.50;98.60
16863;DHT22;52193;48.216;-1.698;2023-09-19T05:20:15;18.50;98.60
16863;DHT22;52193;48.216;-1.698;2023-09-19T05:22:44;18.60;98.70
16863;DHT22;52193;48.216;-1.698;2023-09-19T05:25:11;18.60;98.70
16863;DHT22;52193;48.216;-1.698;2023-09-19T05:27:41;18.60;98.60
16863;DHT22;52193;48.216;-1.698;2023-09-19T05:30:11;18.60;98.60
16863;DHT22;52193;48.216;-1.698;2023-09-19T05:32:40;18.60;98.50
16863;DHT22;52193;48.216;-1.698;2023-09-19T05:35:07;18.50;98.50
16863;DHT22;52193;48.216;-1.698;2023-09-19T05:37:36;18.50;98.50
16863;DHT22;52193;48.216;-1.698;2023-09-19T05:40:04;18.40;98.50
16863;DHT22;52193;48.216;-1.698;2023-09-19T05:42:36;18.40;98.50
16863;DHT22;52193;48.216;-1.698;2023-09-19T05:45:04;18.40;98.60
16863;DHT22;52193;48.216;-1.698;2023-09-19T05:47:33;18.40;98.60
16863;DHT22;52193;48.216;-1.698;2023-09-19T05:50:00;18.30;99.00
16863;DHT22;52193;48.216;-1.698;2023-09-19T05:52:28;18.30;98.70
16863;DHT22;52193;48.216;-1.698;2023-09-19T05:54:55;18.30;98.80
16863;DHT22;52193;48.216;-1.698;2023-09-19T05:57:23;18.30;98.80
16863;DHT22;52193;48.216;-1.698;2023-09-19T05:59:50;18.30;98.90
16863;DHT22;52193;48.216;-1.698;2023-09-19T06:02:17;18.30;98.90
16863;DHT22;52193;48.216;-1.698;2023-09-19T06:04:46;18.30;99.00
16863;DHT22;52193;48.216;-1.698;2023-09-19T06:07:12;18.30;99.00
16863;DHT22;52193;48.216;-1.698;2023-09-19T06:09:42;18.30;99.10
16863;DHT22;52193;48.216;-1.698;2023-09-19T06:12:09;18.30;99.50
16863;DHT22;52193;48.216;-1.698;2023-09-19T06:14:39;18.30;99.20
16863;DHT22;52193;48.216;-1.698;2023-09-19T06:17:07;18.30;99.30
16863;DHT22;52193;48.216;-1.698;2023-09-19T06:19:33;18.30;99.30
16863;DHT22;52193;48.216;-1.698;2023-09-19T06:22:02;18.30;99.40
16863;DHT22;52193;48.216;-1.698;2023-09-19T06:24:29;18.30;99.40
16863;DHT22;52193;48.216;-1.698;2023-09-19T06:26:56;18.30;99.50
16863;DHT22;52193;48.216;-1.698;2023-09-19T06:29:23;18.30;99.50
16863;DHT22;52193;48.216;-1.698;2023-09-19T06:31:50;18.30;99.50
16863;DHT22;52193;48.216;-1.698;2023-09-19T06:34:17;18.40;99.60
16863;DHT22;52193;48.216;-1.698;2023-09-19T06:36:44;18.30;99.50
16863;DHT22;52193;48.216;-1.698;2023-09-19T06:39:13;18.40;99.60
16863;DHT22;52193;48.216;-1.698;2023-09-19T06:41:40;18.40;99.70
16863;DHT22;52193;48.216;-1.698;2023-09-19T06:44:07;18.30;99.70
16863;DHT22;52193;48.216;-1.698;2023-09-19T06:46:35;18.40;99.80
16863;DHT22;52193;48.216;-1.698;2023-09-19T06:49:05;18.40;99.80
16863;DHT22;52193;48.216;-1.698;2023-09-19T06:51:32;18.40;99.90
16863;DHT22;52193;48.216;-1.698;2023-09-19T06:54:00;18.40;99.90
16863;DHT22;52193;48.216;-1.698;2023-09-19T06:56:28;18.40;99.90
16863;DHT22;52193;48.216;-1.698;2023-09-19T06:58:55;18.50;99.90
16863;DHT22;52193;48.216;-1.698;2023-09-19T07:01:22;18.50;99.90
16863;DHT22;52193;48.216;-1.698;2023-09-19T07:03:50;18.50;99.90
16863;DHT22;52193;48.216;-1.698;2023-09-19T07:06:18;18.50;99.90
16863;DHT22;52193;48.216;-1.698;2023-09-19T07:08:45;18.50;99.90
16863;DHT22;52193;48.216;-1.698;2023-09-19T07:11:12;18.60;99.90
16863;DHT22;52193;48.216;-1.698;2023-09-19T07:13:41;18.60;99.90
16863;DHT22;52193;48.216;-1.698;2023-09-19T07:16:09;18.60;99.90
16863;DHT22;52193;48.216;-1.698;2023-09-19T07:18:52;18.60;99.90
16863;DHT22;52193;48.216;-1.698;2023-09-19T07:21:20;18.60;99.90
16863;DHT22;52193;48.216;-1.698;2023-09-19T07:23:47;18.60;99.90
16863;DHT22;52193;48.216;-1.698;2023-09-19T07:26:15;18.60;99.90
16863;DHT22;52193;48.216;-1.698;2023-09-19T07:28:43;18.70;99.90
16863;DHT22;52193;48.216;-1.698;2023-09-19T07:31:10;18.70;99.90
16863;DHT22;52193;48.216;-1.698;2023-09-19T07:33:40;18.70;99.90
16863;DHT22;52193;48.216;-1.698;2023-09-19T07:36:10;18.70;99.90
16863;DHT22;52193;48.216;-1.698;2023-09-19T07:38:39;18.70;99.90
16863;DHT22;52193;48.216;-1.698;2023-09-19T07:41:06;18.70;99.90
16863;DHT22;52193;48.216;-1.698;2023-09-19T07:43:34;18.80;99.90
16863;DHT22;52193;48.216;-1.698;2023-09-19T07:46:05;18.80;99.90
16863;DHT22;52193;48.216;-1.698;2023-09-19T07:48:33;18.80;99.90
16863;DHT22;52193;48.216;-1.698;2023-09-19T07:51:04;18.80;99.90
16863;DHT22;52193;48.216;-1.698;2023-09-19T07:53:32;18.90;99.90
16863;DHT22;52193;48.216;-1.698;2023-09-19T07:56:04;18.90;99.90
16863;DHT22;52193;48.216;-1.698;2023-09-19T07:58:31;18.90;99.90
16863;DHT22;52193;48.216;-1.698;2023-09-19T08:01:04;18.90;99.90
16863;DHT22;52193;48.216;-1.698;2023-09-19T08:03:32;18.90;99.90
16863;DHT22;52193;48.216;-1.698;2023-09-19T08:05:59;19.00;99.90
16863;DHT22;52193;48.216;-1.698;2023-09-19T08:08:26;19.00;99.90
16863;DHT22;52193;48.216;-1.698;2023-09-19T08:10:53;19.00;99.90
16863;DHT22;52193;48.216;-1.698;2023-09-19T08:13:22;19.00;99.90
16863;DHT22;52193;48.216;-1.698;2023-09-19T08:15:49;19.10;99.90
16863;DHT22;52193;48.216;-1.698;2023-09-19T08:18:19;19.10;99.90
16863;DHT22;52193;48.216;-1.698;2023-09-19T08:20:51;19.10;99.90
16863;DHT22;52193;48.216;-1.698;2023-09-19T08:23:19;19.10;99.90
16863;DHT22;52193;48.216;-1.698;2023-09-19T08:25:47;19.20;99.90
16863;DHT22;52193;48.216;-1.698;2023-09-19T08:28:13;19.20;99.90
16863;DHT22;52193;48.216;-1.698;2023-09-19T08:30:45;19.20;99.90
16863;DHT22;52193;48.216;-1.698;2023-09-19T08:33:12;19.30;99.90
16863;DHT22;52193;48.216;-1.698;2023-09-19T08:35:42;19.30;99.90
16863;DHT22;52193;48.216;-1.698;2023-09-19T08:38:10;19.40;99.90
16863;DHT22;52193;48.216;-1.698;2023-09-19T08:40:39;19.40;99.90
16863;DHT22;52193;48.216;-1.698;2023-09-19T08:43:08;19.40;99.90
16863;DHT22;52193;48.216;-1.698;2023-09-19T08:45:35;19.40;99.90
16863;DHT22;52193;48.216;-1.698;2023-09-19T08:48:12;19.50;99.90
16863;DHT22;52193;48.216;-1.698;2023-09-19T08:50:49;19.50;99.90
16863;DHT22;52193;48.216;-1.698;2023-09-19T08:53:27;19.50;99.90
16863;DHT22;52193;48.216;-1.698;2023-09-19T08:55:59;19.50;99.90
16863;DHT22;52193;48.216;-1.698;2023-09-19T08:58:31;19.50;99.90
16863;DHT22;52193;48.216;-1.698;2023-09-19T09:01:00;19.60;99.90
16863;DHT22;52193;48.216;-1.698;2023-09-19T09:03:32;19.60;99.90
16863;DHT22;52193;48.216;-1.698;2023-09-19T09:06:01;19.60;99.90
16863;DHT22;52193;48.216;-1.698;2023-09-19T09:08:31;19.60;99.90
16863;DHT22;52193;48.216;-1.698;2023-09-19T09:10:59;19.70;99.90
16863;DHT22;52193;48.216;-1.698;2023-09-19T09:13:26;19.70;99.90
16863;DHT22;52193;48.216;-1.698;2023-09-19T09:15:53;19.70;99.90
16863;DHT22;52193;48.216;-1.698;2023-09-19T09:18:20;19.80;99.90
16863;DHT22;52193;48.216;-1.698;2023-09-19T09:20:48;19.80;99.90
16863;DHT22;52193;48.216;-1.698;2023-09-19T09:23:16;19.80;99.90
16863;DHT22;52193;48.216;-1.698;2023-09-19T09:25:50;19.90;99.90
16863;DHT22;52193;48.216;-1.698;2023-09-19T09:28:22;19.90;99.90
16863;DHT22;52193;48.216;-1.698;2023-09-19T09:30:49;20.00;99.90
16863;DHT22;52193;48.216;-1.698;2023-09-19T09:33:17;20.10;99.90
16863;DHT22;52193;48.216;-1.698;2023-09-19T09:35:51;20.10;99.90
16863;DHT22;52193;48.216;-1.698;2023-09-19T09:38:25;20.10;99.90
16863;DHT22;52193;48.216;-1.698;2023-09-19T09:40:55;20.20;99.90
16863;DHT22;52193;48.216;-1.698;2023-09-19T09:43:29;20.30;99.90
16863;DHT22;52193;48.216;-1.698;2023-09-19T09:46:10;20.30;99.90
16863;DHT22;52193;48.216;-1.698;2023-09-19T09:49:04;20.40;99.90
16863;DHT22;52193;48.216;-1.698;2023-09-19T09:51:46;20.40;99.90
16863;DHT22;52193;48.216;-1.698;2023-09-19T09:54:25;20.40;99.90
16863;DHT22;52193;48.216;-1.698;2023-09-19T09:57:00;20.50;99.90
16863;DHT22;52193;48.216;-1.698;2023-09-19T09:59:46;20.60;99.90
16863;DHT22;52193;48.216;-1.698;2023-09-19T10:02:15;20.60;99.90
16863;DHT22;52193;48.216;-1.698;2023-09-19T10:04:50;20.70;99.90
16863;DHT22;52193;48.216;-1.698;2023-09-19T10:07:34;20.70;99.90
16863;DHT22;52193;48.216;-1.698;2023-09-19T10:10:06;20.80;99.90
16863;DHT22;52193;48.216;-1.698;2023-09-19T10:12:43;20.90;99.90
16863;DHT22;52193;48.216;-1.698;2023-09-19T10:15:12;20.90;99.90
16863;DHT22;52193;48.216;-1.698;2023-09-19T10:17:42;21.00;99.90
16863;DHT22;52193;48.216;-1.698;2023-09-19T10:20:12;21.00;99.90
16863;DHT22;52193;48.216;-1.698;2023-09-19T10:23:00;21.10;99.90
16863;DHT22;52193;48.216;-1.698;2023-09-19T10:25:29;21.10;99.70
16863;DHT22;52193;48.216;-1.698;2023-09-19T10:27:58;21.20;99.30
16863;DHT22;52193;48.216;-1.698;2023-09-19T10:30:29;21.20;98.80
16863;DHT22;52193;48.216;-1.698;2023-09-19T10:33:00;21.30;98.50
16863;DHT22;52193;48.216;-1.698;2023-09-19T10:35:28;21.30;98.30
16863;DHT22;52193;48.216;-1.698;2023-09-19T10:37:57;21.40;98.20
16863;DHT22;52193;48.216;-1.698;2023-09-19T10:40:28;21.50;97.90
16863;DHT22;52193;48.216;-1.698;2023-09-19T10:43:01;21.50;97.80
16863;DHT22;52193;48.216;-1.698;2023-09-19T10:45:31;21.60;97.40
16863;DHT22;52193;48.216;-1.698;2023-09-19T10:47:58;21.60;97.20
16863;DHT22;52193;48.216;-1.698;2023-09-19T10:50:28;21.70;97.00
16863;DHT22;52193;48.216;-1.698;2023-09-19T10:53:00;21.70;96.90
16863;DHT22;52193;48.216;-1.698;2023-09-19T10:55:32;21.80;96.80
16863;DHT22;52193;48.216;-1.698;2023-09-19T10:58:01;21.80;96.70
16863;DHT22;52193;48.216;-1.698;2023-09-19T11:00:50;21.90;96.60
16863;DHT22;52193;48.216;-1.698;2023-09-19T11:03:19;21.90;96.50
16863;DHT22;52193;48.216;-1.698;2023-09-19T11:06:02;22.00;96.40
16863;DHT22;52193;48.216;-1.698;2023-09-19T11:08:59;22.00;96.30
16863;DHT22;52193;48.216;-1.698;2023-09-19T11:11:50;22.10;96.30
16863;DHT22;52193;48.216;-1.698;2023-09-19T11:14:37;22.10;96.30
16863;DHT22;52193;48.216;-1.698;2023-09-19T11:17:32;22.20;96.40
16863;DHT22;52193;48.216;-1.698;2023-09-19T11:20:32;22.20;96.00
16863;DHT22;52193;48.216;-1.698;2023-09-19T11:23:23;22.20;95.90
16863;DHT22;52193;48.216;-1.698;2023-09-19T11:25:52;22.30;95.50
16863;DHT22;52193;48.216;-1.698;2023-09-19T11:28:32;22.30;95.50
16863;DHT22;52193;48.216;-1.698;2023-09-19T11:30:59;22.30;95.40
16863;DHT22;52193;48.216;-1.698;2023-09-19T11:33:46;22.40;95.30
16863;DHT22;52193;48.216;-1.698;2023-09-19T11:36:16;22.50;95.20
16863;DHT22;52193;48.216;-1.698;2023-09-19T11:38:58;22.50;95.00
16863;DHT22;52193;48.216;-1.698;2023-09-19T11:41:40;22.60;94.90
16863;DHT22;52193;48.216;-1.698;2023-09-19T11:44:33;22.70;94.50
16863;DHT22;52193;48.216;-1.698;2023-09-19T11:47:05;22.80;94.20
16863;DHT22;52193;48.216;-1.698;2023-09-19T11:49:32;22.80;93.90
16863;DHT22;52193;48.216;-1.698;2023-09-19T11:52:01;22.90;93.90
16863;DHT22;52193;48.216;-1.698;2023-09-19T11:54:31;23.00;93.80
16863;DHT22;52193;48.216;-1.698;2023-09-19T11:56:59;23.00;93.70
16863;DHT22;52193;48.216;-1.698;2023-09-19T11:59:27;23.10;93.70
16863;DHT22;52193;48.216;-1.698;2023-09-19T12:01:57;23.20;93.70
16863;DHT22;52193;48.216;-1.698;2023-09-19T12:04:34;23.20;93.70
16863;DHT22;52193;48.216;-1.698;2023-09-19T12:07:04;23.30;93.30
16863;DHT22;52193;48.216;-1.698;2023-09-19T12:09:38;23.30;93.10
16863;DHT22;52193;48.216;-1.698;2023-09-19T12:12:06;23.30;92.80
16863;DHT22;52193;48.216;-1.698;2023-09-19T12:14:33;23.30;92.60
16863;DHT22;52193;48.216;-1.698;2023-09-19T12:17:02;23.30;92.60
16863;DHT22;52193;48.216;-1.698;2023-09-19T12:19:29;23.40;92.40
16863;DHT22;52193;48.216;-1.698;2023-09-19T12:21:59;23.30;92.20
16863;DHT22;52193;48.216;-1.698;2023-09-19T12:24:30;23.30;92.10
16863;DHT22;52193;48.216;-1.698;2023-09-19T12:27:01;23.30;92.10
16863;DHT22;52193;48.216;-1.698;2023-09-19T12:29:30;23.30;92.10
16863;DHT22;52193;48.216;-1.698;2023-09-19T12:31:59;23.30;92.20
16863;DHT22;52193;48.216;-1.698;2023-09-19T12:34:31;23.30;92.30
16863;DHT22;52193;48.216;-1.698;2023-09-19T12:37:04;23.30;92.10
16863;DHT22;52193;48.216;-1.698;2023-09-19T12:39:37;23.20;92.00
16863;DHT22;52193;48.216;-1.698;2023-09-19T12:42:04;23.20;92.00
16863;DHT22;52193;48.216;-1.698;2023-09-19T12:44:35;23.20;91.90
16863;DHT22;52193;48.216;-1.698;2023-09-19T12:47:09;23.20;91.80
16863;DHT22;52193;48.216;-1.698;2023-09-19T12:50:07;23.10;91.70
16863;DHT22;52193;48.216;-1.698;2023-09-19T12:52:39;23.10;91.90
16863;DHT22;52193;48.216;-1.698;2023-09-19T12:55:06;23.00;92.00
16863;DHT22;52193;48.216;-1.698;2023-09-19T12:57:35;23.00;92.10
16863;DHT22;52193;48.216;-1.698;2023-09-19T13:00:02;23.00;92.30
16863;DHT22;52193;48.216;-1.698;2023-09-19T13:02:31;23.10;92.40
16863;DHT22;52193;48.216;-1.698;2023-09-19T13:04:59;23.10;92.30
16863;DHT22;52193;48.216;-1.698;2023-09-19T13:07:43;23.10;92.10
16863;DHT22;52193;48.216;-1.698;2023-09-19T13:10:11;23.10;92.10
16863;DHT22;52193;48.216;-1.698;2023-09-19T13:12:42;23.10;92.10
16863;DHT22;52193;48.216;-1.698;2023-09-19T13:15:13;23.10;92.20
16863;DHT22;52193;48.216;-1.698;2023-09-19T13:17:44;23.10;92.10
16863;DHT22;52193;48.216;-1.698;2023-09-19T13:20:22;23.10;92.30
16863;DHT22;52193;48.216;-1.698;2023-09-19T13:22:54;23.10;92.30
16863;DHT22;52193;48.216;-1.698;2023-09-19T13:25:25;23.10;92.30
16863;DHT22;52193;48.216;-1.698;2023-09-19T13:27:56;23.10;92.20
16863;DHT22;52193;48.216;-1.698;2023-09-19T13:30:24;23.10;92.10
16863;DHT22;52193;48.216;-1.698;2023-09-19T13:32:52;23.10;91.90
16863;DHT22;52193;48.216;-1.698;2023-09-19T13:35:19;23.10;91.80
16863;DHT22;52193;48.216;-1.698;2023-09-19T13:37:48;23.10;91.90
16863;DHT22;52193;48.216;-1.698;2023-09-19T13:40:17;23.20;92.20
16863;DHT22;52193;48.216;-1.698;2023-09-19T13:42:44;23.20;92.30
16863;DHT22;52193;48.216;-1.698;2023-09-19T13:45:11;23.20;92.20
16863;DHT22;52193;48.216;-1.698;2023-09-19T13:47:41;23.20;92.10
16863;DHT22;52193;48.216;-1.698;2023-09-19T13:50:09;23.30;92.20
16863;DHT22;52193;48.216;-1.698;2023-09-19T13:52:36;23.30;92.20
16863;DHT22;52193;48.216;-1.698;2023-09-19T13:55:06;23.20;92.00
16863;DHT22;52193;48.216;-1.698;2023-09-19T13:57:33;23.20;91.90
16863;DHT22;52193;48.216;-1.698;2023-09-19T14:00:00;23.30;91.90
16863;DHT22;52193;48.216;-1.698;2023-09-19T14:02:27;23.30;91.90
16863;DHT22;52193;48.216;-1.698;2023-09-19T14:04:54;23.50;91.90
16863;DHT22;52193;48.216;-1.698;2023-09-19T14:07:23;23.60;91.90
16863;DHT22;52193;48.216;-1.698;2023-09-19T14:09:51;23.80;91.60
16863;DHT22;52193;48.216;-1.698;2023-09-19T14:12:19;23.90;91.40
16863;DHT22;52193;48.216;-1.698;2023-09-19T14:14:46;24.00;91.30
16863;DHT22;52193;48.216;-1.698;2023-09-19T14:17:15;24.00;91.20
16863;DHT22;52193;48.216;-1.698;2023-09-19T14:19:43;24.00;91.00
16863;DHT22;52193;48.216;-1.698;2023-09-19T14:22:10;24.00;91.00
16863;DHT22;52193;48.216;-1.698;2023-09-19T14:24:37;24.00;91.00
16863;DHT22;52193;48.216;-1.698;2023-09-19T14:27:04;23.90;90.80
16863;DHT22;52193;48.216;-1.698;2023-09-19T14:29:36;23.90;90.80
16863;DHT22;52193;48.216;-1.698;2023-09-19T14:32:04;23.80;90.90
16863;DHT22;52193;48.216;-1.698;2023-09-19T14:34:31;23.80;91.30
16863;DHT22;52193;48.216;-1.698;2023-09-19T14:36:58;23.70;91.00
16863;DHT22;52193;48.216;-1.698;2023-09-19T14:39:25;23.70;91.20
16863;DHT22;52193;48.216;-1.698;2023-09-19T14:41:53;23.70;91.20
16863;DHT22;52193;48.216;-1.698;2023-09-19T14:44:19;23.70;91.30
16863;DHT22;52193;48.216;-1.698;2023-09-19T14:46:48;23.70;91.30
16863;DHT22;52193;48.216;-1.698;2023-09-19T14:49:15;23.60;91.20
16863;DHT22;52193;48.216;-1.698;2023-09-19T14:51:42;23.60;91.40
16863;DHT22;52193;48.216;-1.698;2023-09-19T14:54:09;23.60;91.50
16863;DHT22;52193;48.216;-1.698;2023-09-19T14:56:36;23.60;91.50
16863;DHT22;52193;48.216;-1.698;2023-09-19T14:59:03;23.60;91.50
16863;DHT22;52193;48.216;-1.698;2023-09-19T15:01:30;23.60;91.50
16863;DHT22;52193;48.216;-1.698;2023-09-19T15:03:59;23.60;91.60
16863;DHT22;52193;48.216;-1.698;2023-09-19T15:06:26;23.50;91.50
16863;DHT22;52193;48.216;-1.698;2023-09-19T15:08:53;23.50;91.60
16863;DHT22;52193;48.216;-1.698;2023-09-19T15:11:20;23.50;91.70
16863;DHT22;52193;48.216;-1.698;2023-09-19T15:13:51;23.50;91.70
16863;DHT22;52193;48.216;-1.698;2023-09-19T15:16:19;23.50;91.60
16863;DHT22;52193;48.216;-1.698;2023-09-19T15:18:46;23.50;91.70
16863;DHT22;52193;48.216;-1.698;2023-09-19T15:21:15;23.50;91.80
16863;DHT22;52193;48.216;-1.698;2023-09-19T15:23:43;23.50;91.90
16863;DHT22;52193;48.216;-1.698;2023-09-19T15:26:12;23.50;91.70
16863;DHT22;52193;48.216;-1.698;2023-09-19T15:28:40;23.50;91.50
16863;DHT22;52193;48.216;-1.698;2023-09-19T15:31:08;23.40;91.30
16863;DHT22;52193;48.216;-1.698;2023-09-19T15:33:35;23.40;91.40